DAL819 KATL-KSAN
Flight info
| Callsign | DAL819 |
|---|---|
| Flight time | N/A |
| Altitude | 34000 |
| Route | ACH074011 HOGGZ LUCKI1 KSAN |
| Aircraft | B738/M-SDE2E3FGHIRWXY/LB1 |
Departure
| Time | N/A |
|---|---|
| Airport | Hartsfield Jackson Atlanta International Airport (KATL) |
Arrival
| Time | 2026-04-22 04:16 |
|---|---|
| Airport | San Diego International Airport (KSAN) |
| Time | Latitude | Longitude | Altitude | Speed | Heading |
|---|---|---|---|---|---|
| 2026-04-22 03:11 | 33.98356 | -109.75261 | 34016 ft | 433 kts | 253° |
| 2026-04-22 03:11 | 33.96563 | -109.82180 | 34022 ft | 432 kts | 253° |
| 2026-04-22 03:12 | 33.94766 | -109.89094 | 34016 ft | 433 kts | 253° |
| 2026-04-22 03:12 | 33.92924 | -109.96163 | 34002 ft | 433 kts | 253° |
| 2026-04-22 03:13 | 33.91121 | -110.03060 | 33984 ft | 433 kts | 253° |
| 2026-04-22 03:13 | 33.89310 | -110.09975 | 33979 ft | 433 kts | 253° |
| 2026-04-22 03:14 | 33.87497 | -110.16879 | 33971 ft | 433 kts | 253° |
| 2026-04-22 03:14 | 33.85679 | -110.23786 | 33961 ft | 433 kts | 253° |
| 2026-04-22 03:15 | 33.83869 | -110.30643 | 33962 ft | 433 kts | 253° |
| 2026-04-22 03:15 | 33.82040 | -110.37554 | 33962 ft | 434 kts | 253° |
| 2026-04-22 03:16 | 33.80206 | -110.44468 | 33961 ft | 434 kts | 253° |
| 2026-04-22 03:16 | 33.78367 | -110.51384 | 33949 ft | 435 kts | 253° |
| 2026-04-22 03:17 | 33.76536 | -110.58250 | 33946 ft | 435 kts | 253° |
| 2026-04-22 03:17 | 33.74684 | -110.65177 | 33943 ft | 435 kts | 252° |
| 2026-04-22 03:18 | 33.72828 | -110.72105 | 33939 ft | 436 kts | 252° |
| 2026-04-22 03:18 | 33.70965 | -110.79039 | 33940 ft | 436 kts | 252° |
| 2026-04-22 03:19 | 33.69100 | -110.85962 | 33939 ft | 436 kts | 252° |
| 2026-04-22 03:19 | 33.67230 | -110.92887 | 33933 ft | 435 kts | 252° |
| 2026-04-22 03:20 | 33.65374 | -110.99746 | 33925 ft | 435 kts | 252° |
| 2026-04-22 03:20 | 33.63500 | -111.06651 | 33922 ft | 434 kts | 252° |
| 2026-04-22 03:21 | 33.61627 | -111.13538 | 33920 ft | 434 kts | 252° |
| 2026-04-22 03:21 | 33.59749 | -111.20422 | 33917 ft | 434 kts | 252° |
| 2026-04-22 03:22 | 33.57885 | -111.27242 | 33904 ft | 433 kts | 252° |
| 2026-04-22 03:22 | 33.56011 | -111.34084 | 33906 ft | 432 kts | 251° |
| 2026-04-22 03:23 | 33.54132 | -111.40923 | 33907 ft | 432 kts | 251° |
| 2026-04-22 03:23 | 33.52251 | -111.47754 | 33915 ft | 431 kts | 251° |
| 2026-04-22 03:24 | 33.50371 | -111.54564 | 33922 ft | 431 kts | 251° |
| 2026-04-22 03:24 | 33.48500 | -111.61326 | 33950 ft | 430 kts | 251° |
| 2026-04-22 03:25 | 33.46611 | -111.68136 | 33948 ft | 431 kts | 251° |
| 2026-04-22 03:25 | 33.44719 | -111.74940 | 33942 ft | 431 kts | 251° |
| 2026-04-22 03:26 | 33.42824 | -111.81740 | 33948 ft | 430 kts | 251° |
| 2026-04-22 03:26 | 33.40930 | -111.88521 | 33928 ft | 430 kts | 251° |
| 2026-04-22 03:27 | 33.39041 | -111.95268 | 33917 ft | 430 kts | 251° |
| 2026-04-22 03:27 | 33.37140 | -112.02038 | 33919 ft | 430 kts | 251° |
| 2026-04-22 03:28 | 33.35233 | -112.08817 | 33930 ft | 429 kts | 251° |
| 2026-04-22 03:28 | 33.33331 | -112.15562 | 33914 ft | 429 kts | 251° |
| 2026-04-22 03:29 | 33.31434 | -112.22271 | 33924 ft | 428 kts | 251° |
| 2026-04-22 03:29 | 33.29521 | -112.29022 | 33929 ft | 428 kts | 250° |
| 2026-04-22 03:30 | 33.27610 | -112.35750 | 33927 ft | 428 kts | 251° |
| 2026-04-22 03:30 | 33.25694 | -112.42481 | 33923 ft | 427 kts | 251° |
| 2026-04-22 03:31 | 33.23778 | -112.49198 | 33917 ft | 427 kts | 251° |
| 2026-04-22 03:31 | 33.21872 | -112.55862 | 33932 ft | 426 kts | 250° |
| 2026-04-22 03:32 | 33.19954 | -112.62553 | 33935 ft | 426 kts | 250° |
| 2026-04-22 03:32 | 33.18033 | -112.69238 | 33924 ft | 426 kts | 250° |
| 2026-04-22 03:33 | 33.16121 | -112.75878 | 33915 ft | 425 kts | 250° |
| 2026-04-22 03:33 | 33.14197 | -112.82543 | 33915 ft | 425 kts | 250° |
| 2026-04-22 03:34 | 33.12270 | -112.89204 | 33908 ft | 425 kts | 250° |
| 2026-04-22 03:34 | 33.10342 | -112.95856 | 33912 ft | 424 kts | 250° |
| 2026-04-22 03:35 | 33.08413 | -113.02493 | 33898 ft | 424 kts | 250° |
| 2026-04-22 03:35 | 33.06480 | -113.09128 | 33892 ft | 423 kts | 250° |
| 2026-04-22 03:36 | 33.04557 | -113.15716 | 33890 ft | 423 kts | 250° |
| 2026-04-22 03:36 | 33.02623 | -113.22328 | 33896 ft | 422 kts | 250° |
| 2026-04-22 03:37 | 33.00688 | -113.28927 | 33894 ft | 422 kts | 250° |
| 2026-04-22 03:37 | 32.98751 | -113.35516 | 33903 ft | 421 kts | 250° |
| 2026-04-22 03:38 | 32.96828 | -113.42045 | 33901 ft | 420 kts | 250° |
| 2026-04-22 03:38 | 32.94891 | -113.48608 | 33902 ft | 420 kts | 250° |
| 2026-04-22 03:39 | 32.92952 | -113.55162 | 33907 ft | 420 kts | 250° |
| 2026-04-22 03:39 | 32.91011 | -113.61708 | 33908 ft | 419 kts | 250° |
| 2026-04-22 03:40 | 32.89067 | -113.68252 | 33914 ft | 419 kts | 250° |
| 2026-04-22 03:40 | 32.87123 | -113.74782 | 33919 ft | 419 kts | 250° |
| 2026-04-22 03:41 | 32.85177 | -113.81301 | 33924 ft | 418 kts | 250° |
| 2026-04-22 03:41 | 32.83230 | -113.87813 | 33927 ft | 418 kts | 250° |
| 2026-04-22 03:42 | 32.81296 | -113.94271 | 33934 ft | 417 kts | 250° |
| 2026-04-22 03:42 | 32.79349 | -114.00754 | 33938 ft | 416 kts | 250° |
| 2026-04-22 03:43 | 32.77863 | -114.07386 | 33951 ft | 416 kts | 261° |
| 2026-04-22 03:43 | 32.77729 | -114.14270 | 33960 ft | 418 kts | 270° |
| 2026-04-22 03:44 | 32.78050 | -114.21165 | 33955 ft | 418 kts | 270° |
| 2026-04-22 03:44 | 32.78336 | -114.28006 | 33952 ft | 417 kts | 270° |
| 2026-04-22 03:45 | 32.78602 | -114.34892 | 33951 ft | 417 kts | 270° |
| 2026-04-22 03:45 | 32.79517 | -114.41713 | 33949 ft | 423 kts | 283° |
| 2026-04-22 03:46 | 32.81336 | -114.48165 | 33956 ft | 423 kts | 284° |
| 2026-04-22 03:46 | 32.83151 | -114.54637 | 33960 ft | 422 kts | 284° |
| 2026-04-22 03:47 | 32.84977 | -114.61272 | 33950 ft | 422 kts | 283° |
| 2026-04-22 03:47 | 32.85863 | -114.64499 | 33928 ft | 407 kts | 283° |
| 2026-04-22 03:47 | 32.86724 | -114.67632 | 33933 ft | 391 kts | 283° |
| 2026-04-22 03:48 | 32.87545 | -114.70650 | 33932 ft | 375 kts | 281° |
| 2026-04-22 03:48 | 32.87969 | -114.73640 | 33942 ft | 363 kts | 268° |
| 2026-04-22 03:48 | 32.87928 | -114.76638 | 33634 ft | 361 kts | 265° |
| 2026-04-22 03:48 | 32.87842 | -114.79595 | 33315 ft | 355 kts | 265° |
| 2026-04-22 03:49 | 32.87755 | -114.82509 | 32963 ft | 351 kts | 265° |
| 2026-04-22 03:49 | 32.87675 | -114.85401 | 32570 ft | 348 kts | 265° |
| 2026-04-22 03:49 | 32.87601 | -114.88270 | 32188 ft | 346 kts | 265° |
| 2026-04-22 03:49 | 32.87533 | -114.91076 | 31841 ft | 343 kts | 265° |
| 2026-04-22 03:50 | 32.87465 | -114.93906 | 31477 ft | 341 kts | 265° |
| 2026-04-22 03:50 | 32.87400 | -114.96712 | 31118 ft | 338 kts | 265° |
| 2026-04-22 03:50 | 32.87335 | -114.99500 | 30765 ft | 336 kts | 265° |
| 2026-04-22 03:50 | 32.87272 | -115.02159 | 30423 ft | 334 kts | 265° |
| 2026-04-22 03:51 | 32.87210 | -115.04817 | 30086 ft | 333 kts | 265° |
| 2026-04-22 03:51 | 32.87145 | -115.07559 | 29685 ft | 331 kts | 265° |
| 2026-04-22 03:51 | 32.87080 | -115.10283 | 29291 ft | 328 kts | 265° |
| 2026-04-22 03:51 | 32.87015 | -115.12981 | 28923 ft | 325 kts | 265° |
| 2026-04-22 03:52 | 32.86950 | -115.15651 | 28555 ft | 322 kts | 265° |
| 2026-04-22 03:52 | 32.86886 | -115.18263 | 28201 ft | 319 kts | 265° |
| 2026-04-22 03:52 | 32.86821 | -115.20885 | 27844 ft | 316 kts | 265° |
| 2026-04-22 03:52 | 32.86756 | -115.23487 | 27497 ft | 313 kts | 265° |
| 2026-04-22 03:53 | 32.86691 | -115.26072 | 27149 ft | 312 kts | 265° |
| 2026-04-22 03:53 | 32.86624 | -115.28671 | 26816 ft | 318 kts | 265° |
| 2026-04-22 03:53 | 32.86554 | -115.31339 | 26466 ft | 327 kts | 265° |
| 2026-04-22 03:53 | 32.86476 | -115.34065 | 26094 ft | 331 kts | 264° |
| 2026-04-22 03:54 | 32.86203 | -115.36784 | 25656 ft | 331 kts | 259° |
| 2026-04-22 03:54 | 32.85798 | -115.39467 | 25296 ft | 329 kts | 258° |
| 2026-04-22 03:54 | 32.85388 | -115.42134 | 24926 ft | 327 kts | 258° |
| 2026-04-22 03:54 | 32.85003 | -115.44754 | 24562 ft | 325 kts | 259° |
| 2026-04-22 03:55 | 32.84626 | -115.47398 | 24189 ft | 323 kts | 259° |
| 2026-04-22 03:55 | 32.84243 | -115.50026 | 23808 ft | 322 kts | 258° |
| 2026-04-22 03:55 | 32.83826 | -115.52630 | 23433 ft | 320 kts | 258° |
| 2026-04-22 03:55 | 32.83399 | -115.55213 | 23041 ft | 317 kts | 258° |
| 2026-04-22 03:56 | 32.82974 | -115.57774 | 22670 ft | 314 kts | 258° |
| 2026-04-22 03:56 | 32.82555 | -115.60311 | 22315 ft | 311 kts | 258° |
| 2026-04-22 03:56 | 32.82141 | -115.62822 | 21989 ft | 308 kts | 258° |
| 2026-04-22 03:56 | 32.81738 | -115.65271 | 21643 ft | 305 kts | 258° |
| 2026-04-22 03:57 | 32.81333 | -115.67733 | 21310 ft | 302 kts | 258° |
| 2026-04-22 03:57 | 32.80933 | -115.70168 | 20979 ft | 299 kts | 258° |
| 2026-04-22 03:57 | 32.80534 | -115.72588 | 20649 ft | 297 kts | 258° |
| 2026-04-22 03:57 | 32.80139 | -115.74991 | 20324 ft | 295 kts | 258° |
| 2026-04-22 03:58 | 32.79746 | -115.77373 | 20006 ft | 294 kts | 258° |
| 2026-04-22 03:58 | 32.79352 | -115.79761 | 19690 ft | 295 kts | 258° |
| 2026-04-22 03:58 | 32.78956 | -115.82156 | 19373 ft | 296 kts | 258° |
| 2026-04-22 03:58 | 32.78558 | -115.84561 | 19054 ft | 297 kts | 258° |
| 2026-04-22 03:59 | 32.78276 | -115.86997 | 18738 ft | 298 kts | 263° |
| 2026-04-22 03:59 | 32.78093 | -115.89457 | 18402 ft | 300 kts | 264° |
| 2026-04-22 03:59 | 32.77932 | -115.91902 | 18060 ft | 301 kts | 264° |
| 2026-04-22 03:59 | 32.77767 | -115.94389 | 17702 ft | 302 kts | 264° |
| 2026-04-22 04:00 | 32.77596 | -115.96875 | 17357 ft | 303 kts | 264° |
| 2026-04-22 04:00 | 32.77417 | -115.99383 | 16923 ft | 306 kts | 264° |
| 2026-04-22 04:00 | 32.77234 | -116.01896 | 16576 ft | 304 kts | 264° |
| 2026-04-22 04:00 | 32.77049 | -116.04394 | 16229 ft | 302 kts | 264° |
| 2026-04-22 04:01 | 32.76864 | -116.06873 | 15910 ft | 300 kts | 264° |
| 2026-04-22 04:01 | 32.76679 | -116.09330 | 15592 ft | 298 kts | 263° |
| 2026-04-22 04:01 | 32.76494 | -116.11771 | 15273 ft | 295 kts | 263° |
| 2026-04-22 04:01 | 32.76309 | -116.14192 | 14960 ft | 294 kts | 263° |
| 2026-04-22 04:02 | 32.76125 | -116.16605 | 14638 ft | 292 kts | 263° |
| 2026-04-22 04:02 | 32.75944 | -116.18968 | 14325 ft | 290 kts | 263° |
| 2026-04-22 04:02 | 32.75762 | -116.21348 | 14010 ft | 290 kts | 263° |
| 2026-04-22 04:02 | 32.75579 | -116.23729 | 13657 ft | 288 kts | 263° |
| 2026-04-22 04:03 | 32.75395 | -116.26090 | 13326 ft | 285 kts | 263° |
| 2026-04-22 04:03 | 32.75214 | -116.28426 | 13016 ft | 283 kts | 263° |
| 2026-04-22 04:03 | 32.75034 | -116.30743 | 12705 ft | 281 kts | 263° |
| 2026-04-22 04:03 | 32.74857 | -116.33041 | 12393 ft | 279 kts | 263° |
| 2026-04-22 04:04 | 32.74682 | -116.35320 | 12093 ft | 276 kts | 263° |
| 2026-04-22 04:04 | 32.74505 | -116.37585 | 11787 ft | 274 kts | 263° |
| 2026-04-22 04:04 | 32.74330 | -116.39836 | 11497 ft | 272 kts | 263° |
| 2026-04-22 04:04 | 32.74159 | -116.42036 | 11189 ft | 271 kts | 263° |
| 2026-04-22 04:05 | 32.73986 | -116.44257 | 10907 ft | 269 kts | 263° |
| 2026-04-22 04:05 | 32.73813 | -116.46461 | 10620 ft | 268 kts | 263° |
| 2026-04-22 04:05 | 32.73640 | -116.48662 | 10318 ft | 267 kts | 263° |
| 2026-04-22 04:05 | 32.73461 | -116.50851 | 10060 ft | 264 kts | 262° |
| 2026-04-22 04:06 | 32.73253 | -116.53029 | 10040 ft | 267 kts | 262° |
| 2026-04-22 04:06 | 32.73038 | -116.55221 | 9970 ft | 266 kts | 261° |
| 2026-04-22 04:06 | 32.72828 | -116.57375 | 9908 ft | 258 kts | 261° |
| 2026-04-22 04:06 | 32.72630 | -116.59427 | 9902 ft | 244 kts | 261° |
| 2026-04-22 04:07 | 32.72440 | -116.61377 | 9897 ft | 242 kts | 261° |
| 2026-04-22 04:07 | 32.72244 | -116.63386 | 9868 ft | 246 kts | 261° |
| 2026-04-22 04:07 | 32.72047 | -116.65402 | 9544 ft | 247 kts | 261° |
| 2026-04-22 04:07 | 32.71875 | -116.67429 | 9060 ft | 248 kts | 263° |
| 2026-04-22 04:08 | 32.71716 | -116.69471 | 8552 ft | 249 kts | 263° |
| 2026-04-22 04:08 | 32.71558 | -116.71508 | 7997 ft | 249 kts | 263° |
| 2026-04-22 04:08 | 32.71399 | -116.73543 | 7581 ft | 246 kts | 263° |
| 2026-04-22 04:08 | 32.71243 | -116.75558 | 7152 ft | 245 kts | 264° |
| 2026-04-22 04:09 | 32.71085 | -116.77569 | 6766 ft | 241 kts | 264° |
| 2026-04-22 04:09 | 32.70936 | -116.79468 | 6711 ft | 222 kts | 263° |
| 2026-04-22 04:09 | 32.70797 | -116.81225 | 6574 ft | 205 kts | 263° |
| 2026-04-22 04:09 | 32.70503 | -116.82789 | 6374 ft | 192 kts | 250° |
| 2026-04-22 04:10 | 32.70036 | -116.84272 | 5985 ft | 191 kts | 249° |
| 2026-04-22 04:10 | 32.69559 | -116.85744 | 5583 ft | 191 kts | 250° |
| 2026-04-22 04:10 | 32.69090 | -116.87214 | 5234 ft | 189 kts | 250° |
| 2026-04-22 04:10 | 32.68634 | -116.88665 | 4971 ft | 186 kts | 251° |
| 2026-04-22 04:11 | 32.68197 | -116.90123 | 4760 ft | 190 kts | 251° |
| 2026-04-22 04:11 | 32.67750 | -116.91631 | 4524 ft | 196 kts | 251° |
| 2026-04-22 04:11 | 32.67322 | -116.93172 | 4271 ft | 197 kts | 260° |
| 2026-04-22 04:11 | 32.67464 | -116.94736 | 4050 ft | 194 kts | 286° |
| 2026-04-22 04:12 | 32.67849 | -116.96262 | 3829 ft | 193 kts | 285° |
| 2026-04-22 04:12 | 32.68216 | -116.97790 | 3611 ft | 192 kts | 285° |
| 2026-04-22 04:12 | 32.68581 | -116.99306 | 3402 ft | 189 kts | 285° |
| 2026-04-22 04:12 | 32.68940 | -117.00789 | 3176 ft | 185 kts | 285° |
| 2026-04-22 04:13 | 32.69292 | -117.02240 | 2933 ft | 181 kts | 285° |
| 2026-04-22 04:13 | 32.69637 | -117.03654 | 2725 ft | 176 kts | 285° |
| 2026-04-22 04:13 | 32.69972 | -117.05032 | 2494 ft | 171 kts | 285° |
| 2026-04-22 04:13 | 32.70294 | -117.06353 | 2281 ft | 167 kts | 286° |
| 2026-04-22 04:14 | 32.70622 | -117.07672 | 2087 ft | 167 kts | 287° |
| 2026-04-22 04:14 | 32.70959 | -117.08999 | 1830 ft | 170 kts | 286° |
| 2026-04-22 04:14 | 32.71285 | -117.10348 | 1575 ft | 166 kts | 286° |
| 2026-04-22 04:14 | 32.71591 | -117.11623 | 1358 ft | 153 kts | 286° |
| 2026-04-22 04:15 | 32.71876 | -117.12810 | 1073 ft | 146 kts | 285° |
| 2026-04-22 04:15 | 32.72153 | -117.13964 | 857 ft | 148 kts | 286° |
| 2026-04-22 04:15 | 32.72394 | -117.14962 | 666 ft | 151 kts | 285° |
| 2026-04-22 04:15 | 32.72680 | -117.16146 | 440 ft | 151 kts | 285° |
| 2026-04-22 04:16 | 32.72967 | -117.17342 | 214 ft | 150 kts | 288° |
| 2026-04-22 04:16 | 32.73463 | -117.19386 | 28 ft | 48 kts | 286° |
| 2026-04-22 04:16 | 32.73532 | -117.19724 | 29 ft | 22 kts | 267° |
| 2026-04-22 04:17 | 32.73494 | -117.19878 | 27 ft | 15 kts | 248° |
| 2026-04-22 04:17 | 32.73487 | -117.19903 | 26 ft | 0 kts | 260° |
| 2026-04-22 04:17 | 32.73487 | -117.19906 | 26 ft | 1 kts | 260° |
| 2026-04-22 04:17 | 32.73486 | -117.19911 | 26 ft | 1 kts | 259° |
| 2026-04-22 04:18 | 32.73484 | -117.19917 | 26 ft | 1 kts | 252° |
| 2026-04-22 04:18 | 32.73475 | -117.19935 | 31 ft | 8 kts | 235° |
| 2026-04-22 04:18 | 32.73452 | -117.20002 | 26 ft | 9 kts | 274° |
| 2026-04-22 04:18 | 32.73475 | -117.20070 | 27 ft | 9 kts | 311° |
| 2026-04-22 04:19 | 32.73495 | -117.20103 | 29 ft | 0 kts | 294° |
| 2026-04-22 04:19 | 32.73495 | -117.20107 | 28 ft | 3 kts | 289° |
| 2026-04-22 04:19 | 32.73519 | -117.20189 | 26 ft | 18 kts | 289° |
| 2026-04-22 04:20 | 32.73524 | -117.20297 | 24 ft | 7 kts | 239° |
| 2026-04-22 04:20 | 32.73507 | -117.20319 | 25 ft | 0 kts | 217° |
| 2026-04-22 04:20 | 32.73501 | -117.20325 | 23 ft | 0 kts | 217° |
| 2026-04-22 04:20 | 32.73500 | -117.20325 | 23 ft | 2 kts | 217° |
| 2026-04-22 04:21 | 32.73498 | -117.20327 | 25 ft | 0 kts | 217° |
| 2026-04-22 04:22 | 32.73479 | -117.20330 | 23 ft | 6 kts | 174° |
| 2026-04-22 04:22 | 32.73453 | -117.20304 | 25 ft | 10 kts | 129° |
| 2026-04-22 04:22 | 32.73361 | -117.20276 | 23 ft | 18 kts | 169° |
| 2026-04-22 04:23 | 32.73305 | -117.20260 | 25 ft | 8 kts | 162° |
| 2026-04-22 04:23 | 32.73262 | -117.20266 | 25 ft | 9 kts | 199° |
| 2026-04-22 04:23 | 32.73225 | -117.20283 | 27 ft | 0 kts | 200° |
| 2026-04-22 04:23 | 32.73223 | -117.20284 | 27 ft | 0 kts | 200° |